createdAt,value
2018-12-06T00:00:08.923Z,86.77
2018-12-06T00:02:48.342Z,86.94
2018-12-06T00:05:37.322Z,86.96
2018-12-06T00:08:29.029Z,87.22
2018-12-06T00:11:12.348Z,87.49
2018-12-06T00:13:48.237Z,87.54
2018-12-06T00:16:34.589Z,87.52
2018-12-06T00:19:18.754Z,87.76
2018-12-06T00:22:03.059Z,87.73
2018-12-06T00:24:39.491Z,87.23
2018-12-06T00:27:23.485Z,87.41
2018-12-06T00:30:34.735Z,87.33
2018-12-06T00:33:24.320Z,87.56
2018-12-06T00:36:15.753Z,88.04
2018-12-06T00:38:58.280Z,87.53
2018-12-06T00:42:04.378Z,87.81
2018-12-06T00:44:48.655Z,87.90
2018-12-06T00:47:20.410Z,87.85
2018-12-06T00:50:01.144Z,88.05
2018-12-06T00:53:02.653Z,88.37
2018-12-06T00:55:49.111Z,88.46
2018-12-06T00:58:38.816Z,88.54
2018-12-06T01:01:23.161Z,88.58
2018-12-06T01:03:58.483Z,88.61
2018-12-06T01:06:38.390Z,88.55
2018-12-06T01:09:15.515Z,88.44
2018-12-06T01:11:58.190Z,88.63
2018-12-06T01:15:04.452Z,88.59
2018-12-06T01:17:33.522Z,88.98
2018-12-06T01:20:05.940Z,88.90
2018-12-06T01:22:41.434Z,88.56
2018-12-06T01:25:17.956Z,88.48
2018-12-06T01:28:01.459Z,88.71
2018-12-06T01:31:05.576Z,88.89
2018-12-06T01:33:59.484Z,89.27
2018-12-06T01:36:37.050Z,89.26
2018-12-06T01:39:32.266Z,89.09
2018-12-06T01:42:19.872Z,89.29
2018-12-06T01:44:58.896Z,89.33
2018-12-06T01:47:34.388Z,89.27
2018-12-06T01:50:17.499Z,89.00
2018-12-06T01:53:04.959Z,88.95
2018-12-06T01:55:59.976Z,89.23
2018-12-06T01:59:12.985Z,89.23
2018-12-06T02:01:57.321Z,89.45
2018-12-06T02:04:43.199Z,89.49
2018-12-06T02:07:20.665Z,89.61
2018-12-06T02:09:52.927Z,89.62
2018-12-06T02:12:28.643Z,89.51
2018-12-06T02:15:07.117Z,89.96
2018-12-06T02:17:46.009Z,90.02
2018-12-06T02:20:18.247Z,89.95
2018-12-06T02:22:53.409Z,89.98
2018-12-06T02:25:24.067Z,89.96
2018-12-06T02:27:58.179Z,90.05
2018-12-06T02:30:33.168Z,89.76
2018-12-06T02:33:07.128Z,90.09
2018-12-06T02:35:42.261Z,90.09
2018-12-06T02:38:20.680Z,89.94
2018-12-06T02:41:02.633Z,89.63
2018-12-06T02:43:37.602Z,90.09
2018-12-06T02:46:11.442Z,89.91
2018-12-06T02:48:40.685Z,89.71
2018-12-06T02:51:15.892Z,89.91
2018-12-06T02:53:51.329Z,89.92
2018-12-06T02:56:32.017Z,89.72
2018-12-06T02:59:05.209Z,89.46
2018-12-06T03:01:39.811Z,89.32
2018-12-06T03:04:13.125Z,89.42
2018-12-06T03:06:45.610Z,89.71
2018-12-06T03:09:23.843Z,89.47
2018-12-06T03:12:02.988Z,89.68
2018-12-06T03:14:41.114Z,89.80
2018-12-06T03:17:14.941Z,89.34
2018-12-06T03:19:51.333Z,89.34
2018-12-06T03:22:32.201Z,89.38
2018-12-06T03:25:06.673Z,89.27
2018-12-06T03:27:44.623Z,88.75
2018-12-06T03:30:24.214Z,89.51
2018-12-06T03:33:06.315Z,88.79
2018-12-06T03:35:44.491Z,89.25
2018-12-06T03:38:30.482Z,88.69
2018-12-06T03:41:07.057Z,88.38
2018-12-06T03:43:43.542Z,88.28
2018-12-06T03:46:23.449Z,88.56
2018-12-06T03:48:50.519Z,88.91
2018-12-06T03:51:23.092Z,88.80
2018-12-06T03:54:01.129Z,88.83
2018-12-06T03:56:38.437Z,89.12
2018-12-06T03:59:13.604Z,88.53
2018-12-06T04:01:58.350Z,88.00
2018-12-06T04:04:31.526Z,88.38
2018-12-06T04:07:03.937Z,88.27
2018-12-06T04:09:43.923Z,87.59
2018-12-06T04:12:21.426Z,88.82
2018-12-06T04:14:53.247Z,88.46
2018-12-06T04:17:25.855Z,88.05
2018-12-06T04:20:00.418Z,87.15
2018-12-06T04:22:34.557Z,86.43
2018-12-06T04:25:12.993Z,85.56
2018-12-06T04:27:43.490Z,85.46
2018-12-06T04:30:20.616Z,85.53
2018-12-06T04:32:51.897Z,84.76
2018-12-06T04:35:27.899Z,84.55
2018-12-06T04:38:02.392Z,84.46
2018-12-06T04:40:33.826Z,84.24
2018-12-06T04:43:05.151Z,83.91
2018-12-06T04:45:37.037Z,83.45
2018-12-06T04:48:10.231Z,83.39
2018-12-06T04:50:41.077Z,83.34
2018-12-06T04:53:16.989Z,83.25
2018-12-06T04:55:55.399Z,83.23
2018-12-06T04:58:26.745Z,82.98
2018-12-06T05:00:55.996Z,83.01
2018-12-06T05:03:29.583Z,82.88
2018-12-06T05:06:23.257Z,82.81
2018-12-06T05:08:54.980Z,82.75
2018-12-06T05:11:26.643Z,82.60
2018-12-06T05:14:02.220Z,82.77
2018-12-06T05:16:32.904Z,82.37
2018-12-06T05:19:03.741Z,82.22
2018-12-06T05:21:36.446Z,82.35
2018-12-06T05:24:05.108Z,82.13
2018-12-06T05:26:40.609Z,82.25
2018-12-06T05:29:10.963Z,82.44
2018-12-06T05:31:43.841Z,82.72
2018-12-06T05:34:14.476Z,82.75
2018-12-06T05:36:48.361Z,82.54
2018-12-06T05:39:20.731Z,82.57
2018-12-06T05:41:55.345Z,82.53
2018-12-06T05:44:24.684Z,82.59
2018-12-06T05:46:56.892Z,82.58
2018-12-06T05:49:29.896Z,82.60
2018-12-06T05:51:59.969Z,82.50
2018-12-06T05:54:30.222Z,82.46
2018-12-06T05:57:01.676Z,82.47
2018-12-06T05:59:35.361Z,82.59
2018-12-06T06:02:09.294Z,82.74
2018-12-06T06:04:38.750Z,82.70
2018-12-06T06:07:10.200Z,82.68
2018-12-06T06:09:41.378Z,82.77
2018-12-06T06:12:11.782Z,82.93
2018-12-06T06:14:46.074Z,82.97
2018-12-06T06:17:22.503Z,83.22
2018-12-06T06:19:53.900Z,83.46
2018-12-06T06:22:25.398Z,83.90
2018-12-06T06:25:00.752Z,84.01
2018-12-06T06:27:35.606Z,84.09
2018-12-06T06:30:10.205Z,84.46
2018-12-06T06:32:44.227Z,85.20
2018-12-06T06:35:20.479Z,85.80
2018-12-06T06:37:53.266Z,85.93
2018-12-06T06:40:28.716Z,86.41
2018-12-06T06:43:02.452Z,86.67
2018-12-06T06:45:31.278Z,86.56
2018-12-06T06:48:04.342Z,86.68
2018-12-06T06:50:38.628Z,86.35
2018-12-06T06:53:10.472Z,86.52
2018-12-06T06:55:45.288Z,86.27
2018-12-06T06:58:18.223Z,86.27
2018-12-06T07:00:53.206Z,86.18
2018-12-06T07:03:26.342Z,86.19
2018-12-06T07:06:06.119Z,86.01
2018-12-06T07:08:34.042Z,85.84
2018-12-06T07:11:05.076Z,87.87
2018-12-06T07:13:40.413Z,88.12
2018-12-06T07:16:13.806Z,86.98
2018-12-06T07:18:51.802Z,85.18
2018-12-06T07:21:25.969Z,83.01
2018-12-06T07:24:06.688Z,83.54
2018-12-06T07:26:42.847Z,83.85
2018-12-06T07:29:18.305Z,84.28
2018-12-06T07:31:51.183Z,84.50
2018-12-06T07:34:24.768Z,84.54
2018-12-06T07:36:55.760Z,84.76
2018-12-06T07:39:28.548Z,84.88
2018-12-06T07:42:02.327Z,85.12
2018-12-06T07:44:47.173Z,85.14
2018-12-06T07:47:19.665Z,85.07
2018-12-06T07:49:54.690Z,84.96
2018-12-06T07:52:25.340Z,84.88
2018-12-06T07:54:56.260Z,84.62
2018-12-06T07:57:32.650Z,84.57
2018-12-06T08:00:09.454Z,84.54
2018-12-06T08:02:43.626Z,84.57
2018-12-06T08:05:17.230Z,84.75
2018-12-06T08:07:55.084Z,84.72
2018-12-06T08:10:32.134Z,84.68
2018-12-06T08:13:11.197Z,84.66
2018-12-06T08:15:47.716Z,84.92
2018-12-06T08:18:26.902Z,84.87
2018-12-06T08:20:57.832Z,84.95
2018-12-06T08:23:28.412Z,84.99
2018-12-06T08:26:04.504Z,84.99
2018-12-06T08:28:36.152Z,85.00
2018-12-06T08:31:07.506Z,85.02
2018-12-06T08:33:38.616Z,85.00
2018-12-06T08:36:09.182Z,85.04
2018-12-06T08:38:41.490Z,85.29
2018-12-06T08:41:12.528Z,85.46
2018-12-06T08:43:44.194Z,85.49
2018-12-06T08:46:18.580Z,85.76
2018-12-06T08:48:50.281Z,86.06
2018-12-06T08:51:24.624Z,86.26
2018-12-06T08:53:58.751Z,86.37
2018-12-06T08:56:31.754Z,86.67
2018-12-06T08:59:04.730Z,86.94
2018-12-06T09:01:42.032Z,87.10
2018-12-06T09:04:16.993Z,87.16
2018-12-06T09:06:54.045Z,87.34
2018-12-06T09:09:27.405Z,87.60
2018-12-06T09:12:02.373Z,87.81
2018-12-06T09:14:30.533Z,88.08
2018-12-06T09:17:04.272Z,88.21
2018-12-06T09:19:35.617Z,88.22
2018-12-06T09:22:06.022Z,88.18
2018-12-06T09:24:36.004Z,88.20
2018-12-06T09:27:07.355Z,88.19
2018-12-06T09:29:38.338Z,88.23
2018-12-06T09:32:15.146Z,88.27
2018-12-06T09:34:50.462Z,88.18
2018-12-06T09:37:23.032Z,88.21
2018-12-06T09:40:08.610Z,88.08
2018-12-06T09:42:42.457Z,87.84
2018-12-06T09:45:13.992Z,87.70
2018-12-06T09:47:44.613Z,87.59
2018-12-06T09:50:15.039Z,87.37
2018-12-06T09:52:48.388Z,87.08
2018-12-06T09:55:21.954Z,86.89
2018-12-06T09:57:55.647Z,86.69
2018-12-06T10:00:28.781Z,86.39
2018-12-06T10:02:57.288Z,86.26
2018-12-06T10:05:27.642Z,85.73
2018-12-06T10:08:00.670Z,85.47
2018-12-06T10:10:39.594Z,85.17
2018-12-06T10:13:11.444Z,85.21
2018-12-06T10:15:44.225Z,85.09
2018-12-06T10:18:14.292Z,85.21
2018-12-06T10:20:45.185Z,85.34
2018-12-06T10:23:20.503Z,85.41
2018-12-06T10:25:50.648Z,85.44
2018-12-06T10:28:22.548Z,85.86
2018-12-06T10:30:56.513Z,86.12
2018-12-06T10:33:26.770Z,86.35
2018-12-06T10:35:58.102Z,86.49
2018-12-06T10:38:32.342Z,86.66
2018-12-06T10:41:06.521Z,86.80
2018-12-06T10:43:37.822Z,86.53
2018-12-06T10:46:13.897Z,86.47
2018-12-06T10:48:47.273Z,86.38
2018-12-06T10:51:42.731Z,86.27
2018-12-06T10:54:13.357Z,86.27
2018-12-06T10:56:45.702Z,86.29
2018-12-06T10:59:16.500Z,86.36
2018-12-06T11:02:26.926Z,86.56
2018-12-06T11:04:56.952Z,86.56
2018-12-06T11:07:29.645Z,86.17
2018-12-06T11:10:06.235Z,86.17
2018-12-06T11:12:37.469Z,86.34
2018-12-06T11:15:07.697Z,86.30
2018-12-06T11:17:41.379Z,86.42
2018-12-06T11:20:17.998Z,86.23
2018-12-06T11:22:49.295Z,86.21
2018-12-06T11:25:19.410Z,86.02
2018-12-06T11:27:50.212Z,86.48
2018-12-06T11:30:22.331Z,86.48
2018-12-06T11:32:55.813Z,86.57
2018-12-06T11:35:26.725Z,86.74
2018-12-06T11:38:00.093Z,86.89
2018-12-06T11:40:31.530Z,86.90
2018-12-06T11:43:01.871Z,86.55
2018-12-06T11:45:32.037Z,86.63
2018-12-06T11:48:06.872Z,87.03
2018-12-06T11:50:38.447Z,87.16
2018-12-06T11:53:11.289Z,87.04
2018-12-06T11:55:42.333Z,87.28
2018-12-06T11:58:12.549Z,87.36
2018-12-06T12:00:45.759Z,87.46
2018-12-06T12:03:16.603Z,87.46
2018-12-06T12:05:58.413Z,87.42
2018-12-06T12:08:22.696Z,87.53
2018-12-06T12:11:01.460Z,87.53
2018-12-06T12:13:31.590Z,87.47
2018-12-06T12:16:02.686Z,87.70
2018-12-06T12:18:33.611Z,87.62
2018-12-06T12:21:07.421Z,87.62
2018-12-06T12:23:38.161Z,87.81
2018-12-06T12:26:09.506Z,87.63
2018-12-06T12:28:40.477Z,87.93
2018-12-06T12:31:11.186Z,87.61
2018-12-06T12:33:44.886Z,87.61
2018-12-06T12:36:22.715Z,88.08
2018-12-06T12:38:58.022Z,88.08
2018-12-06T12:41:26.735Z,87.91
2018-12-06T12:44:01.402Z,87.81
2018-12-06T12:46:40.865Z,88.27
2018-12-06T12:49:14.311Z,88.56
2018-12-06T12:51:44.295Z,88.53
2018-12-06T12:54:18.708Z,88.69
2018-12-06T12:56:52.213Z,88.86
2018-12-06T12:59:25.621Z,88.86
2018-12-06T13:02:01.111Z,89.10
2018-12-06T13:04:31.881Z,88.88
2018-12-06T13:07:09.877Z,88.88
2018-12-06T13:09:40.899Z,89.06
2018-12-06T13:12:14.280Z,88.96
2018-12-06T13:14:48.763Z,88.61
2018-12-06T13:17:19.785Z,89.25
2018-12-06T13:19:55.495Z,89.32
2018-12-06T13:22:30.451Z,89.37
2018-12-06T13:25:02.645Z,89.77
2018-12-06T13:27:33.991Z,89.65
2018-12-06T13:30:03.953Z,89.65
2018-12-06T13:32:34.177Z,89.53
2018-12-06T13:35:04.914Z,89.84
2018-12-06T13:37:41.391Z,89.86
2018-12-06T13:40:16.079Z,89.59
2018-12-06T13:42:46.649Z,90.03
2018-12-06T13:45:19.942Z,90.21
2018-12-06T13:47:58.459Z,90.49
2018-12-06T13:50:31.241Z,90.46
2018-12-06T13:53:02.463Z,90.92
2018-12-06T13:55:33.064Z,90.83
2018-12-06T13:58:06.325Z,91.23
2018-12-06T14:00:37.056Z,91.33
2018-12-06T14:03:07.561Z,91.52
2018-12-06T14:05:41.405Z,91.52
2018-12-06T14:08:11.932Z,91.73
2018-12-06T14:10:45.029Z,91.73
2018-12-06T14:13:23.637Z,92.00
2018-12-06T14:15:51.207Z,92.20
2018-12-06T14:18:21.583Z,92.13
2018-12-06T14:20:55.986Z,92.25
2018-12-06T14:23:30.924Z,92.29
2018-12-06T14:26:17.311Z,92.18
2018-12-06T14:28:53.882Z,92.25
2018-12-06T14:31:28.740Z,92.20
2018-12-06T14:34:00.308Z,92.32
2018-12-06T14:36:32.669Z,92.38
2018-12-06T14:39:11.717Z,92.35
2018-12-06T14:41:40.362Z,92.34
2018-12-06T14:44:15.707Z,92.42
2018-12-06T14:46:46.523Z,92.47
2018-12-06T14:49:23.731Z,92.45
2018-12-06T14:51:56.392Z,92.45
2018-12-06T14:54:28.559Z,92.40
2018-12-06T14:56:59.423Z,92.38
2018-12-06T14:59:30.958Z,92.67
2018-12-06T15:02:01.401Z,92.67
2018-12-06T15:04:32.074Z,92.23
2018-12-06T15:07:04.259Z,92.39
2018-12-06T15:09:37.543Z,92.45
2018-12-06T15:12:10.866Z,92.68
2018-12-06T15:14:44.820Z,92.66
2018-12-06T15:17:16.180Z,92.62
2018-12-06T15:19:48.689Z,92.84
2018-12-06T15:22:20.962Z,92.85
2018-12-06T15:24:53.756Z,92.92
2018-12-06T15:27:27.195Z,92.96
2018-12-06T15:30:01.511Z,92.96
2018-12-06T15:32:32.405Z,92.96
2018-12-06T15:35:07.399Z,92.96
2018-12-06T15:37:36.515Z,92.85
2018-12-06T15:40:07.808Z,92.74
2018-12-06T15:42:40.130Z,92.75
2018-12-06T15:45:09.764Z,92.38
2018-12-06T15:47:40.467Z,92.36
2018-12-06T15:50:10.774Z,92.36
2018-12-06T15:52:41.864Z,92.52
2018-12-06T15:55:12.506Z,92.52
2018-12-06T15:57:45.239Z,92.76
2018-12-06T16:00:16.423Z,92.93
2018-12-06T16:02:47.473Z,92.95
2018-12-06T16:05:23.256Z,92.95
2018-12-06T16:08:04.170Z,93.15
2018-12-06T16:10:34.579Z,93.41
2018-12-06T16:13:05.715Z,93.17
2018-12-06T16:15:39.269Z,93.36
2018-12-06T16:18:09.029Z,93.17
2018-12-06T16:20:41.280Z,93.61
2018-12-06T16:23:13.585Z,93.61
2018-12-06T16:25:47.130Z,93.68
2018-12-06T16:28:17.643Z,93.68
2018-12-06T16:30:50.987Z,93.63
2018-12-06T16:33:24.797Z,93.63
2018-12-06T16:35:55.387Z,93.74
2018-12-06T16:38:26.183Z,93.69
2018-12-06T16:40:56.739Z,93.79
2018-12-06T16:43:32.175Z,93.70
2018-12-06T16:46:03.031Z,93.64
2018-12-06T16:48:36.643Z,93.57
2018-12-06T16:51:10.171Z,93.48
2018-12-06T16:53:41.219Z,93.54
2018-12-06T16:56:11.944Z,93.25
2018-12-06T16:58:42.643Z,93.20
2018-12-06T17:01:14.979Z,93.20
2018-12-06T17:04:00.729Z,93.20
2018-12-06T17:06:34.765Z,93.21
2018-12-06T17:09:14.376Z,93.07
2018-12-06T17:11:45.501Z,92.84
2018-12-06T17:14:16.954Z,92.75
2018-12-06T17:16:51.395Z,92.73
2018-12-06T17:19:24.571Z,92.63
2018-12-06T17:21:57.339Z,92.57
2018-12-06T17:24:33.985Z,92.42
2018-12-06T17:27:04.996Z,92.35
2018-12-06T17:29:37.931Z,92.17
2018-12-06T17:32:08.547Z,91.74
2018-12-06T17:34:39.895Z,91.72
2018-12-06T17:37:10.963Z,91.67
2018-12-06T17:39:44.021Z,91.41
2018-12-06T17:42:18.857Z,91.12
2018-12-06T17:44:52.925Z,90.76
2018-12-06T17:47:27.491Z,90.62
2018-12-06T17:50:02.646Z,90.58
2018-12-06T17:52:35.697Z,90.21
2018-12-06T17:55:07.785Z,89.67
2018-12-06T17:57:38.844Z,89.80
2018-12-06T18:00:14.302Z,89.54
2018-12-06T18:02:45.656Z,89.61
2018-12-06T18:05:16.334Z,89.30
2018-12-06T18:07:46.798Z,88.36
2018-12-06T18:10:18.543Z,88.36
2018-12-06T18:12:52.131Z,88.24
2018-12-06T18:15:22.940Z,88.05
2018-12-06T18:17:53.375Z,87.58
2018-12-06T18:20:28.298Z,87.58
2018-12-06T18:22:58.496Z,87.68
2018-12-06T18:25:31.593Z,87.38
2018-12-06T18:28:01.941Z,87.58
2018-12-06T18:30:41.228Z,87.33
2018-12-06T18:33:08.037Z,87.31
2018-12-06T18:35:38.837Z,87.32
2018-12-06T18:38:09.627Z,87.21
2018-12-06T18:40:45.089Z,87.19
2018-12-06T18:43:13.909Z,87.23
2018-12-06T18:45:43.999Z,87.18
2018-12-06T18:48:14.161Z,87.17
2018-12-06T18:50:50.769Z,86.82
2018-12-06T18:53:22.125Z,86.95
2018-12-06T18:55:55.279Z,86.64
2018-12-06T18:58:34.147Z,86.57
2018-12-06T19:00:57.733Z,86.53
2018-12-06T19:03:29.862Z,86.78
2018-12-06T19:06:00.365Z,86.82
2018-12-06T19:08:32.179Z,86.82
2018-12-06T19:11:04.234Z,87.06
2018-12-06T19:13:38.979Z,86.94
2018-12-06T19:16:17.251Z,86.70
2018-12-06T19:18:47.149Z,86.40
2018-12-06T19:21:26.580Z,86.39
2018-12-06T19:24:08.393Z,86.21
2018-12-06T19:26:36.923Z,86.20
2018-12-06T19:29:13.889Z,85.95
2018-12-06T19:31:54.907Z,85.96
2018-12-06T19:34:28.102Z,85.71
2018-12-06T19:37:07.733Z,85.25
2018-12-06T19:39:41.244Z,85.44
2018-12-06T19:42:11.444Z,85.15
2018-12-06T19:44:43.511Z,85.35
2018-12-06T19:47:19.783Z,85.40
2018-12-06T19:49:57.138Z,85.38
2018-12-06T19:52:47.940Z,85.60
2018-12-06T19:55:39.811Z,85.46
2018-12-06T19:58:10.801Z,85.77
2018-12-06T20:00:49.552Z,85.65
2018-12-06T20:03:22.627Z,85.66
2018-12-06T20:05:58.701Z,85.59
2018-12-06T20:08:28.987Z,85.77
2018-12-06T20:11:38.217Z,85.95
2018-12-06T20:14:16.142Z,86.03
2018-12-06T20:17:01.101Z,86.14
2018-12-06T20:19:45.487Z,85.69
2018-12-06T20:22:28.630Z,85.88
2018-12-06T20:25:05.374Z,85.97
2018-12-06T20:27:43.278Z,86.01
2018-12-06T20:30:26.100Z,85.96
2018-12-06T20:32:55.798Z,86.05
2018-12-06T20:35:33.122Z,86.19
2018-12-06T20:38:06.021Z,86.32
2018-12-06T20:40:50.400Z,86.34
2018-12-06T20:43:48.218Z,86.29
2018-12-06T20:46:36.207Z,86.41
2018-12-06T20:49:22.777Z,86.45
2018-12-06T20:52:04.033Z,86.43
2018-12-06T20:54:34.886Z,86.33
2018-12-06T20:57:10.630Z,86.40
2018-12-06T20:59:44.084Z,86.39
2018-12-06T21:02:18.168Z,86.51
2018-12-06T21:04:51.057Z,86.60
2018-12-06T21:07:25.084Z,86.68
2018-12-06T21:09:55.663Z,86.77
2018-12-06T21:12:30.209Z,86.82
2018-12-06T21:15:03.344Z,86.98
2018-12-06T21:17:37.748Z,86.99
2018-12-06T21:20:18.002Z,86.90
2018-12-06T21:22:54.878Z,86.97
2018-12-06T21:25:25.722Z,86.99
2018-12-06T21:27:59.054Z,86.96
2018-12-06T21:30:29.137Z,87.13
2018-12-06T21:33:04.376Z,86.60
2018-12-06T21:35:36.307Z,86.66
2018-12-06T21:38:12.159Z,86.61
2018-12-06T21:40:42.645Z,86.78
2018-12-06T21:43:19.164Z,86.60
2018-12-06T21:45:50.038Z,86.44
2018-12-06T21:48:32.911Z,86.61
2018-12-06T21:51:06.751Z,86.13
2018-12-06T21:53:50.957Z,86.15
2018-12-06T21:56:25.554Z,86.14
2018-12-06T21:58:57.828Z,86.08
2018-12-06T22:01:29.833Z,86.26
2018-12-06T22:04:05.028Z,86.11
2018-12-06T22:06:35.897Z,86.26
2018-12-06T22:09:11.854Z,86.23
2018-12-06T22:11:49.492Z,86.29
2018-12-06T22:14:32.174Z,86.13
2018-12-06T22:17:01.558Z,86.19
2018-12-06T22:19:31.222Z,86.05
2018-12-06T22:22:07.898Z,86.21
2018-12-06T22:24:42.519Z,85.85
2018-12-06T22:27:21.440Z,85.86
2018-12-06T22:30:02.298Z,85.76
2018-12-06T22:32:36.220Z,85.75
2018-12-06T22:35:12.176Z,85.88
2018-12-06T22:37:43.615Z,85.72
2018-12-06T22:40:17.640Z,85.94
2018-12-06T22:42:57.238Z,85.90
2018-12-06T22:45:59.576Z,85.73
2018-12-06T22:48:33.754Z,85.09
2018-12-06T22:51:04.238Z,84.78
2018-12-06T22:53:39.360Z,84.92
2018-12-06T22:56:13.964Z,84.75
2018-12-06T22:58:47.543Z,84.43
2018-12-06T23:01:42.410Z,84.28
2018-12-06T23:04:13.786Z,83.82
2018-12-06T23:06:47.026Z,83.63
2018-12-06T23:09:19.028Z,83.83
2018-12-06T23:11:53.702Z,83.81
2018-12-06T23:14:30.933Z,83.67
2018-12-06T23:17:03.801Z,83.42
2018-12-06T23:19:38.872Z,83.86
2018-12-06T23:22:07.279Z,83.62
2018-12-06T23:24:41.482Z,83.75
2018-12-06T23:27:19.490Z,83.78
2018-12-06T23:29:55.297Z,84.19
2018-12-06T23:32:27.818Z,84.01
2018-12-06T23:35:00.120Z,84.18
2018-12-06T23:37:32.351Z,84.03
2018-12-06T23:40:03.713Z,84.22
2018-12-06T23:42:42.586Z,84.39
2018-12-06T23:45:23.911Z,84.26
2018-12-06T23:48:08.454Z,84.34
2018-12-06T23:50:41.611Z,84.60
2018-12-06T23:53:16.284Z,84.52
2018-12-06T23:55:53.286Z,84.60
2018-12-06T23:58:24.769Z,84.56
